sensor_id;sensor_type;location;lat;lon;timestamp;temperature;humidity
18163;DHT22;9206;50.994;4.538;2023-05-14T00:00:13;12.90;99.90
18163;DHT22;9206;50.994;4.538;2023-05-14T00:03:03;12.90;99.90
18163;DHT22;9206;50.994;4.538;2023-05-14T00:05:53;12.90;99.90
18163;DHT22;9206;50.994;4.538;2023-05-14T00:08:45;12.80;99.90
18163;DHT22;9206;50.994;4.538;2023-05-14T00:11:35;12.80;99.90
18163;DHT22;9206;50.994;4.538;2023-05-14T00:14:26;12.70;99.90
18163;DHT22;9206;50.994;4.538;2023-05-14T00:17:15;12.70;99.90
18163;DHT22;9206;50.994;4.538;2023-05-14T00:20:03;12.70;99.90
18163;DHT22;9206;50.994;4.538;2023-05-14T00:22:52;12.70;99.90
18163;DHT22;9206;50.994;4.538;2023-05-14T00:25:40;12.60;99.90
18163;DHT22;9206;50.994;4.538;2023-05-14T00:28:27;12.60;99.90
18163;DHT22;9206;50.994;4.538;2023-05-14T00:31:15;12.60;99.90
18163;DHT22;9206;50.994;4.538;2023-05-14T00:34:04;12.60;99.90
18163;DHT22;9206;50.994;4.538;2023-05-14T00:36:55;12.50;99.90
18163;DHT22;9206;50.994;4.538;2023-05-14T00:39:46;12.50;99.90
18163;DHT22;9206;50.994;4.538;2023-05-14T00:42:33;12.50;99.90
18163;DHT22;9206;50.994;4.538;2023-05-14T00:45:21;12.40;99.90
18163;DHT22;9206;50.994;4.538;2023-05-14T00:48:09;12.40;99.90
18163;DHT22;9206;50.994;4.538;2023-05-14T00:50:58;12.30;99.90
18163;DHT22;9206;50.994;4.538;2023-05-14T00:53:47;12.30;99.90
18163;DHT22;9206;50.994;4.538;2023-05-14T00:56:53;12.30;99.90
18163;DHT22;9206;50.994;4.538;2023-05-14T00:59:47;12.20;99.90
18163;DHT22;9206;50.994;4.538;2023-05-14T01:02:38;12.10;99.90
18163;DHT22;9206;50.994;4.538;2023-05-14T01:05:28;12.10;99.90
18163;DHT22;9206;50.994;4.538;2023-05-14T01:08:34;12.00;99.90
18163;DHT22;9206;50.994;4.538;2023-05-14T01:11:39;12.00;99.90
18163;DHT22;9206;50.994;4.538;2023-05-14T01:14:44;11.90;99.90
18163;DHT22;9206;50.994;4.538;2023-05-14T01:17:39;11.90;99.90
18163;DHT22;9206;50.994;4.538;2023-05-14T01:20:28;11.80;99.90
18163;DHT22;9206;50.994;4.538;2023-05-14T01:23:21;11.80;99.90
18163;DHT22;9206;50.994;4.538;2023-05-14T01:26:09;11.70;99.90
18163;DHT22;9206;50.994;4.538;2023-05-14T01:29:02;11.60;99.90
18163;DHT22;9206;50.994;4.538;2023-05-14T01:31:59;11.60;99.90
18163;DHT22;9206;50.994;4.538;2023-05-14T01:34:57;11.60;99.90
18163;DHT22;9206;50.994;4.538;2023-05-14T01:37:53;11.60;99.90
18163;DHT22;9206;50.994;4.538;2023-05-14T01:40:48;11.60;99.90
18163;DHT22;9206;50.994;4.538;2023-05-14T01:43:37;11.60;99.90
18163;DHT22;9206;50.994;4.538;2023-05-14T01:46:25;11.50;99.90
18163;DHT22;9206;50.994;4.538;2023-05-14T01:49:18;11.50;99.90
18163;DHT22;9206;50.994;4.538;2023-05-14T01:52:11;11.40;99.90
18163;DHT22;9206;50.994;4.538;2023-05-14T01:55:05;11.40;99.90
18163;DHT22;9206;50.994;4.538;2023-05-14T01:57:56;11.30;99.90
18163;DHT22;9206;50.994;4.538;2023-05-14T02:00:43;11.30;99.90
18163;DHT22;9206;50.994;4.538;2023-05-14T02:03:34;11.30;99.90
18163;DHT22;9206;50.994;4.538;2023-05-14T02:06:29;11.30;99.90
18163;DHT22;9206;50.994;4.538;2023-05-14T02:09:23;11.20;99.90
18163;DHT22;9206;50.994;4.538;2023-05-14T02:12:12;11.20;99.90
18163;DHT22;9206;50.994;4.538;2023-05-14T02:15:06;11.20;99.90
18163;DHT22;9206;50.994;4.538;2023-05-14T02:17:55;11.20;99.90
18163;DHT22;9206;50.994;4.538;2023-05-14T02:20:43;11.10;99.90
18163;DHT22;9206;50.994;4.538;2023-05-14T02:23:30;11.10;99.90
18163;DHT22;9206;50.994;4.538;2023-05-14T02:26:18;11.10;99.90
18163;DHT22;9206;50.994;4.538;2023-05-14T02:29:09;11.10;99.90
18163;DHT22;9206;50.994;4.538;2023-05-14T02:31:58;11.10;99.90
18163;DHT22;9206;50.994;4.538;2023-05-14T02:34:48;11.00;99.90
18163;DHT22;9206;50.994;4.538;2023-05-14T02:37:35;11.00;99.90
18163;DHT22;9206;50.994;4.538;2023-05-14T02:40:25;11.00;99.90
18163;DHT22;9206;50.994;4.538;2023-05-14T02:43:15;11.00;99.90
18163;DHT22;9206;50.994;4.538;2023-05-14T02:46:04;11.00;99.90
18163;DHT22;9206;50.994;4.538;2023-05-14T02:48:53;11.00;99.90
18163;DHT22;9206;50.994;4.538;2023-05-14T02:51:51;11.00;99.90
18163;DHT22;9206;50.994;4.538;2023-05-14T02:54:43;11.00;99.90
18163;DHT22;9206;50.994;4.538;2023-05-14T02:57:34;10.90;99.90
18163;DHT22;9206;50.994;4.538;2023-05-14T03:00:24;10.90;99.90
18163;DHT22;9206;50.994;4.538;2023-05-14T03:03:12;10.90;99.90
18163;DHT22;9206;50.994;4.538;2023-05-14T03:06:07;10.90;99.90
18163;DHT22;9206;50.994;4.538;2023-05-14T03:08:58;10.90;99.90
18163;DHT22;9206;50.994;4.538;2023-05-14T03:11:47;10.90;99.90
18163;DHT22;9206;50.994;4.538;2023-05-14T03:14:43;10.90;99.90
18163;DHT22;9206;50.994;4.538;2023-05-14T03:17:33;10.90;99.90
18163;DHT22;9206;50.994;4.538;2023-05-14T03:20:22;10.90;99.90
18163;DHT22;9206;50.994;4.538;2023-05-14T03:23:15;10.90;99.90
18163;DHT22;9206;50.994;4.538;2023-05-14T03:26:03;10.90;99.90
18163;DHT22;9206;50.994;4.538;2023-05-14T03:28:54;11.00;99.90
18163;DHT22;9206;50.994;4.538;2023-05-14T03:31:41;10.90;99.90
18163;DHT22;9206;50.994;4.538;2023-05-14T03:34:29;10.90;99.90
18163;DHT22;9206;50.994;4.538;2023-05-14T03:37:19;11.00;99.90
18163;DHT22;9206;50.994;4.538;2023-05-14T03:40:14;10.90;99.90
18163;DHT22;9206;50.994;4.538;2023-05-14T03:43:02;10.90;99.90
18163;DHT22;9206;50.994;4.538;2023-05-14T03:45:50;10.90;99.90
18163;DHT22;9206;50.994;4.538;2023-05-14T03:48:43;11.00;99.90
18163;DHT22;9206;50.994;4.538;2023-05-14T03:51:33;11.00;99.90
18163;DHT22;9206;50.994;4.538;2023-05-14T03:54:21;11.00;99.90
18163;DHT22;9206;50.994;4.538;2023-05-14T03:57:10;11.10;99.90
18163;DHT22;9206;50.994;4.538;2023-05-14T03:59:57;11.10;99.90
18163;DHT22;9206;50.994;4.538;2023-05-14T04:02:47;11.20;99.90
18163;DHT22;9206;50.994;4.538;2023-05-14T04:05:37;11.20;99.90
18163;DHT22;9206;50.994;4.538;2023-05-14T04:08:27;11.20;99.90
18163;DHT22;9206;50.994;4.538;2023-05-14T04:11:15;11.20;99.90
18163;DHT22;9206;50.994;4.538;2023-05-14T04:14:13;11.20;99.90
18163;DHT22;9206;50.994;4.538;2023-05-14T04:17:01;11.20;99.90
18163;DHT22;9206;50.994;4.538;2023-05-14T04:19:52;11.30;99.90
18163;DHT22;9206;50.994;4.538;2023-05-14T04:22:45;11.30;99.90
18163;DHT22;9206;50.994;4.538;2023-05-14T04:25:35;11.30;99.90
18163;DHT22;9206;50.994;4.538;2023-05-14T04:28:28;11.30;99.90
18163;DHT22;9206;50.994;4.538;2023-05-14T04:31:17;11.40;99.90
18163;DHT22;9206;50.994;4.538;2023-05-14T04:34:08;11.50;99.90
18163;DHT22;9206;50.994;4.538;2023-05-14T04:37:01;11.50;99.90
18163;DHT22;9206;50.994;4.538;2023-05-14T04:39:56;11.50;99.90
18163;DHT22;9206;50.994;4.538;2023-05-14T04:42:43;11.60;99.90
18163;DHT22;9206;50.994;4.538;2023-05-14T04:45:33;11.60;99.90
18163;DHT22;9206;50.994;4.538;2023-05-14T04:48:22;11.60;99.90
18163;DHT22;9206;50.994;4.538;2023-05-14T04:51:09;11.60;99.90
18163;DHT22;9206;50.994;4.538;2023-05-14T04:54:03;11.60;99.90
18163;DHT22;9206;50.994;4.538;2023-05-14T04:56:51;11.70;99.90
18163;DHT22;9206;50.994;4.538;2023-05-14T04:59:40;11.70;99.90
18163;DHT22;9206;50.994;4.538;2023-05-14T05:02:28;11.70;99.90
18163;DHT22;9206;50.994;4.538;2023-05-14T05:05:17;11.80;99.90
18163;DHT22;9206;50.994;4.538;2023-05-14T05:08:04;11.90;99.90
18163;DHT22;9206;50.994;4.538;2023-05-14T05:10:52;12.00;99.90
18163;DHT22;9206;50.994;4.538;2023-05-14T05:13:41;12.10;99.90
18163;DHT22;9206;50.994;4.538;2023-05-14T05:16:31;12.20;99.90
18163;DHT22;9206;50.994;4.538;2023-05-14T05:19:20;12.30;99.90
18163;DHT22;9206;50.994;4.538;2023-05-14T05:22:19;12.40;99.90
18163;DHT22;9206;50.994;4.538;2023-05-14T05:25:07;12.50;99.90
18163;DHT22;9206;50.994;4.538;2023-05-14T05:28:02;12.60;99.90
18163;DHT22;9206;50.994;4.538;2023-05-14T05:30:55;12.70;99.90
18163;DHT22;9206;50.994;4.538;2023-05-14T05:33:45;12.80;99.90
18163;DHT22;9206;50.994;4.538;2023-05-14T05:40:17;12.90;99.90
18163;DHT22;9206;50.994;4.538;2023-05-14T05:43:06;13.00;99.90
18163;DHT22;9206;50.994;4.538;2023-05-14T05:45:53;13.00;99.90
18163;DHT22;9206;50.994;4.538;2023-05-14T05:48:41;13.00;99.90
18163;DHT22;9206;50.994;4.538;2023-05-14T05:51:31;13.00;99.90
18163;DHT22;9206;50.994;4.538;2023-05-14T05:54:24;13.10;99.90
18163;DHT22;9206;50.994;4.538;2023-05-14T05:57:15;13.10;99.90
18163;DHT22;9206;50.994;4.538;2023-05-14T06:00:03;13.10;99.90
18163;DHT22;9206;50.994;4.538;2023-05-14T06:02:57;13.00;99.90
18163;DHT22;9206;50.994;4.538;2023-05-14T06:05:48;13.00;99.90
18163;DHT22;9206;50.994;4.538;2023-05-14T06:08:38;12.90;99.90
18163;DHT22;9206;50.994;4.538;2023-05-14T06:11:30;12.80;99.90
18163;DHT22;9206;50.994;4.538;2023-05-14T06:14:21;12.70;99.90
18163;DHT22;9206;50.994;4.538;2023-05-14T06:17:11;12.70;99.90
18163;DHT22;9206;50.994;4.538;2023-05-14T06:20:02;12.70;99.90
18163;DHT22;9206;50.994;4.538;2023-05-14T06:22:52;12.80;99.90
18163;DHT22;9206;50.994;4.538;2023-05-14T06:25:46;12.80;99.90
18163;DHT22;9206;50.994;4.538;2023-05-14T06:28:41;12.90;99.90
18163;DHT22;9206;50.994;4.538;2023-05-14T06:31:31;13.00;99.90
18163;DHT22;9206;50.994;4.538;2023-05-14T06:34:22;13.10;99.90
18163;DHT22;9206;50.994;4.538;2023-05-14T06:37:12;13.10;99.90
18163;DHT22;9206;50.994;4.538;2023-05-14T06:40:07;13.20;99.90
18163;DHT22;9206;50.994;4.538;2023-05-14T06:42:54;13.30;99.90
18163;DHT22;9206;50.994;4.538;2023-05-14T06:45:47;13.50;99.90
18163;DHT22;9206;50.994;4.538;2023-05-14T06:48:36;13.60;99.90
18163;DHT22;9206;50.994;4.538;2023-05-14T06:51:30;13.80;99.90
18163;DHT22;9206;50.994;4.538;2023-05-14T06:54:17;13.90;99.90
18163;DHT22;9206;50.994;4.538;2023-05-14T06:57:06;14.00;99.90
18163;DHT22;9206;50.994;4.538;2023-05-14T06:59:54;14.00;99.90
18163;DHT22;9206;50.994;4.538;2023-05-14T07:02:45;14.20;99.90
18163;DHT22;9206;50.994;4.538;2023-05-14T07:05:34;14.20;99.90
18163;DHT22;9206;50.994;4.538;2023-05-14T07:08:21;14.40;99.90
18163;DHT22;9206;50.994;4.538;2023-05-14T07:11:08;14.40;99.90
18163;DHT22;9206;50.994;4.538;2023-05-14T07:13:55;14.40;99.90
18163;DHT22;9206;50.994;4.538;2023-05-14T07:16:43;14.50;99.90
18163;DHT22;9206;50.994;4.538;2023-05-14T07:19:31;14.40;99.90
18163;DHT22;9206;50.994;4.538;2023-05-14T07:22:21;14.30;99.90
18163;DHT22;9206;50.994;4.538;2023-05-14T07:25:09;14.30;99.90
18163;DHT22;9206;50.994;4.538;2023-05-14T07:27:56;14.20;99.90
18163;DHT22;9206;50.994;4.538;2023-05-14T07:30:44;14.20;99.90
18163;DHT22;9206;50.994;4.538;2023-05-14T07:33:31;14.30;99.90
18163;DHT22;9206;50.994;4.538;2023-05-14T07:36:19;14.60;99.90
18163;DHT22;9206;50.994;4.538;2023-05-14T07:39:07;14.70;99.90
18163;DHT22;9206;50.994;4.538;2023-05-14T07:41:55;14.80;99.90
18163;DHT22;9206;50.994;4.538;2023-05-14T07:44:42;14.90;99.90
18163;DHT22;9206;50.994;4.538;2023-05-14T07:47:30;15.10;99.90
18163;DHT22;9206;50.994;4.538;2023-05-14T07:50:18;15.30;99.90
18163;DHT22;9206;50.994;4.538;2023-05-14T07:53:06;15.50;99.90
18163;DHT22;9206;50.994;4.538;2023-05-14T07:55:55;15.40;99.90
18163;DHT22;9206;50.994;4.538;2023-05-14T07:58:43;15.40;99.90
18163;DHT22;9206;50.994;4.538;2023-05-14T08:01:30;15.30;99.90
18163;DHT22;9206;50.994;4.538;2023-05-14T08:04:18;15.20;99.90
18163;DHT22;9206;50.994;4.538;2023-05-14T08:07:05;15.20;99.90
18163;DHT22;9206;50.994;4.538;2023-05-14T08:09:53;15.20;99.90
18163;DHT22;9206;50.994;4.538;2023-05-14T08:12:42;15.50;99.90
18163;DHT22;9206;50.994;4.538;2023-05-14T08:15:29;15.70;99.90
18163;DHT22;9206;50.994;4.538;2023-05-14T08:18:18;15.80;99.90
18163;DHT22;9206;50.994;4.538;2023-05-14T08:21:05;15.70;99.90
18163;DHT22;9206;50.994;4.538;2023-05-14T08:23:53;15.50;99.90
18163;DHT22;9206;50.994;4.538;2023-05-14T08:26:41;15.40;99.90
18163;DHT22;9206;50.994;4.538;2023-05-14T08:29:30;15.40;99.90
18163;DHT22;9206;50.994;4.538;2023-05-14T08:32:17;15.50;99.90
18163;DHT22;9206;50.994;4.538;2023-05-14T08:35:05;15.40;99.90
18163;DHT22;9206;50.994;4.538;2023-05-14T08:37:53;15.50;99.90
18163;DHT22;9206;50.994;4.538;2023-05-14T08:40:44;15.60;99.90
18163;DHT22;9206;50.994;4.538;2023-05-14T08:43:42;16.30;99.90
18163;DHT22;9206;50.994;4.538;2023-05-14T08:46:32;17.70;99.90
18163;DHT22;9206;50.994;4.538;2023-05-14T08:49:27;18.20;99.90
18163;DHT22;9206;50.994;4.538;2023-05-14T08:52:21;18.60;99.90
18163;DHT22;9206;50.994;4.538;2023-05-14T08:55:09;18.50;99.90
18163;DHT22;9206;50.994;4.538;2023-05-14T08:57:58;18.30;99.90
18163;DHT22;9206;50.994;4.538;2023-05-14T09:00:46;18.30;99.90
18163;DHT22;9206;50.994;4.538;2023-05-14T09:03:36;18.70;99.90
18163;DHT22;9206;50.994;4.538;2023-05-14T09:06:23;18.80;99.90
18163;DHT22;9206;50.994;4.538;2023-05-14T09:09:12;18.80;99.90
18163;DHT22;9206;50.994;4.538;2023-05-14T09:12:00;19.00;99.90
18163;DHT22;9206;50.994;4.538;2023-05-14T09:14:49;19.10;99.90
18163;DHT22;9206;50.994;4.538;2023-05-14T09:17:37;19.20;99.90
18163;DHT22;9206;50.994;4.538;2023-05-14T09:20:26;19.30;99.90
18163;DHT22;9206;50.994;4.538;2023-05-14T09:23:14;19.70;99.90
18163;DHT22;9206;50.994;4.538;2023-05-14T09:26:03;20.30;99.90
18163;DHT22;9206;50.994;4.538;2023-05-14T09:28:53;21.70;99.90
18163;DHT22;9206;50.994;4.538;2023-05-14T09:31:42;22.00;99.90
18163;DHT22;9206;50.994;4.538;2023-05-14T09:34:30;22.50;99.90
18163;DHT22;9206;50.994;4.538;2023-05-14T09:37:20;22.70;99.90
18163;DHT22;9206;50.994;4.538;2023-05-14T09:40:11;22.60;99.90
18163;DHT22;9206;50.994;4.538;2023-05-14T09:42:59;22.90;99.90
18163;DHT22;9206;50.994;4.538;2023-05-14T09:45:47;23.50;99.90
18163;DHT22;9206;50.994;4.538;2023-05-14T09:48:34;23.90;99.90
18163;DHT22;9206;50.994;4.538;2023-05-14T09:51:22;24.70;99.90
18163;DHT22;9206;50.994;4.538;2023-05-14T09:54:12;24.50;99.90
18163;DHT22;9206;50.994;4.538;2023-05-14T09:57:02;25.40;99.90
18163;DHT22;9206;50.994;4.538;2023-05-14T09:59:50;26.00;99.90
18163;DHT22;9206;50.994;4.538;2023-05-14T10:02:37;26.30;99.90
18163;DHT22;9206;50.994;4.538;2023-05-14T10:05:27;26.60;99.90
18163;DHT22;9206;50.994;4.538;2023-05-14T10:08:19;25.90;99.90
18163;DHT22;9206;50.994;4.538;2023-05-14T10:11:12;24.70;99.90
18163;DHT22;9206;50.994;4.538;2023-05-14T10:14:06;23.90;99.90
18163;DHT22;9206;50.994;4.538;2023-05-14T10:16:58;24.30;99.90
18163;DHT22;9206;50.994;4.538;2023-05-14T10:19:51;23.70;99.90
18163;DHT22;9206;50.994;4.538;2023-05-14T10:22:39;23.80;99.90
18163;DHT22;9206;50.994;4.538;2023-05-14T10:25:27;24.50;99.90
18163;DHT22;9206;50.994;4.538;2023-05-14T10:28:16;24.50;99.90
18163;DHT22;9206;50.994;4.538;2023-05-14T10:31:04;25.40;99.90
18163;DHT22;9206;50.994;4.538;2023-05-14T10:33:51;25.90;99.90
18163;DHT22;9206;50.994;4.538;2023-05-14T10:36:40;26.50;99.90
18163;DHT22;9206;50.994;4.538;2023-05-14T10:39:45;26.70;99.90
18163;DHT22;9206;50.994;4.538;2023-05-14T10:42:34;27.50;99.90
18163;DHT22;9206;50.994;4.538;2023-05-14T10:45:26;27.60;99.90
18163;DHT22;9206;50.994;4.538;2023-05-14T10:48:15;27.10;99.90
18163;DHT22;9206;50.994;4.538;2023-05-14T10:51:03;27.00;99.90
18163;DHT22;9206;50.994;4.538;2023-05-14T10:53:54;27.10;99.90
18163;DHT22;9206;50.994;4.538;2023-05-14T10:56:44;27.50;99.90
18163;DHT22;9206;50.994;4.538;2023-05-14T10:59:32;27.10;99.90
18163;DHT22;9206;50.994;4.538;2023-05-14T11:02:23;27.20;99.90
18163;DHT22;9206;50.994;4.538;2023-05-14T11:05:13;27.60;99.90
18163;DHT22;9206;50.994;4.538;2023-05-14T11:08:04;27.60;99.90
18163;DHT22;9206;50.994;4.538;2023-05-14T11:10:53;27.80;99.90
18163;DHT22;9206;50.994;4.538;2023-05-14T11:13:42;28.00;99.90
18163;DHT22;9206;50.994;4.538;2023-05-14T11:16:30;28.00;99.90
18163;DHT22;9206;50.994;4.538;2023-05-14T11:19:20;27.80;99.90
18163;DHT22;9206;50.994;4.538;2023-05-14T11:22:08;28.20;99.90
18163;DHT22;9206;50.994;4.538;2023-05-14T11:24:58;28.50;99.90
18163;DHT22;9206;50.994;4.538;2023-05-14T11:27:46;28.30;99.90
18163;DHT22;9206;50.994;4.538;2023-05-14T11:30:34;28.40;99.90
18163;DHT22;9206;50.994;4.538;2023-05-14T11:33:22;28.40;99.90
18163;DHT22;9206;50.994;4.538;2023-05-14T11:36:11;28.50;99.90
18163;DHT22;9206;50.994;4.538;2023-05-14T11:38:59;28.10;99.90
18163;DHT22;9206;50.994;4.538;2023-05-14T11:41:52;28.00;99.90
18163;DHT22;9206;50.994;4.538;2023-05-14T11:44:40;28.20;99.90
18163;DHT22;9206;50.994;4.538;2023-05-14T11:47:29;28.20;99.90
18163;DHT22;9206;50.994;4.538;2023-05-14T11:50:16;28.30;99.90
18163;DHT22;9206;50.994;4.538;2023-05-14T11:53:05;27.90;99.90
18163;DHT22;9206;50.994;4.538;2023-05-14T11:55:54;27.40;99.90
18163;DHT22;9206;50.994;4.538;2023-05-14T11:58:47;26.90;99.90
18163;DHT22;9206;50.994;4.538;2023-05-14T12:01:35;26.60;99.90
18163;DHT22;9206;50.994;4.538;2023-05-14T12:04:23;26.70;99.90
18163;DHT22;9206;50.994;4.538;2023-05-14T12:07:11;26.90;99.90
18163;DHT22;9206;50.994;4.538;2023-05-14T12:10:02;27.00;99.90
18163;DHT22;9206;50.994;4.538;2023-05-14T12:12:49;26.80;99.90
18163;DHT22;9206;50.994;4.538;2023-05-14T12:15:37;26.90;99.90
18163;DHT22;9206;50.994;4.538;2023-05-14T12:18:26;26.90;99.90
18163;DHT22;9206;50.994;4.538;2023-05-14T12:21:14;26.70;99.90
18163;DHT22;9206;50.994;4.538;2023-05-14T12:24:01;26.80;99.90
18163;DHT22;9206;50.994;4.538;2023-05-14T12:26:50;26.60;99.90
18163;DHT22;9206;50.994;4.538;2023-05-14T12:29:42;26.60;99.90
18163;DHT22;9206;50.994;4.538;2023-05-14T12:32:30;26.60;99.90
18163;DHT22;9206;50.994;4.538;2023-05-14T12:35:19;26.60;99.90
18163;DHT22;9206;50.994;4.538;2023-05-14T12:38:08;26.50;99.90
18163;DHT22;9206;50.994;4.538;2023-05-14T12:40:55;26.50;99.90
18163;DHT22;9206;50.994;4.538;2023-05-14T12:43:46;26.40;99.90
18163;DHT22;9206;50.994;4.538;2023-05-14T12:46:34;26.40;99.90
18163;DHT22;9206;50.994;4.538;2023-05-14T12:49:22;26.50;99.90
18163;DHT22;9206;50.994;4.538;2023-05-14T12:52:06;27.00;99.90
18163;DHT22;9206;50.994;4.538;2023-05-14T12:54:54;27.10;99.90
18163;DHT22;9206;50.994;4.538;2023-05-14T12:57:44;27.10;99.90
18163;DHT22;9206;50.994;4.538;2023-05-14T13:00:34;26.90;99.90
18163;DHT22;9206;50.994;4.538;2023-05-14T13:03:24;26.90;99.90
18163;DHT22;9206;50.994;4.538;2023-05-14T13:06:18;26.70;99.90
18163;DHT22;9206;50.994;4.538;2023-05-14T13:09:11;26.50;99.90
18163;DHT22;9206;50.994;4.538;2023-05-14T13:12:02;26.40;99.90
18163;DHT22;9206;50.994;4.538;2023-05-14T13:17:30;26.80;99.90
18163;DHT22;9206;50.994;4.538;2023-05-14T13:20:17;26.70;99.90
18163;DHT22;9206;50.994;4.538;2023-05-14T13:23:07;26.60;99.90
18163;DHT22;9206;50.994;4.538;2023-05-14T13:26:00;26.60;99.90
18163;DHT22;9206;50.994;4.538;2023-05-14T13:28:48;26.80;99.90
18163;DHT22;9206;50.994;4.538;2023-05-14T13:31:38;26.80;99.90
18163;DHT22;9206;50.994;4.538;2023-05-14T13:34:35;26.80;99.90
18163;DHT22;9206;50.994;4.538;2023-05-14T13:37:23;26.50;99.90
18163;DHT22;9206;50.994;4.538;2023-05-14T13:40:27;26.40;99.90
18163;DHT22;9206;50.994;4.538;2023-05-14T13:46:36;26.60;99.90
18163;DHT22;9206;50.994;4.538;2023-05-14T13:49:04;26.60;99.90
18163;DHT22;9206;50.994;4.538;2023-05-14T13:51:53;26.70;99.90
18163;DHT22;9206;50.994;4.538;2023-05-14T13:54:42;26.90;99.90
18163;DHT22;9206;50.994;4.538;2023-05-14T13:57:22;26.90;99.90
18163;DHT22;9206;50.994;4.538;2023-05-14T14:00:01;27.00;99.90
18163;DHT22;9206;50.994;4.538;2023-05-14T14:02:41;27.00;99.90
18163;DHT22;9206;50.994;4.538;2023-05-14T14:05:10;26.50;99.90
18163;DHT22;9206;50.994;4.538;2023-05-14T14:07:46;26.40;99.90
18163;DHT22;9206;50.994;4.538;2023-05-14T14:10:16;26.40;99.90
18163;DHT22;9206;50.994;4.538;2023-05-14T14:12:43;26.50;99.90
18163;DHT22;9206;50.994;4.538;2023-05-14T14:15:10;26.20;99.90
18163;DHT22;9206;50.994;4.538;2023-05-14T14:17:38;26.20;99.90
18163;DHT22;9206;50.994;4.538;2023-05-14T14:20:12;26.00;99.90
18163;DHT22;9206;50.994;4.538;2023-05-14T14:22:42;25.80;99.90
18163;DHT22;9206;50.994;4.538;2023-05-14T14:25:12;25.60;99.90
18163;DHT22;9206;50.994;4.538;2023-05-14T14:27:42;25.70;99.90
18163;DHT22;9206;50.994;4.538;2023-05-14T14:30:11;25.60;99.90
18163;DHT22;9206;50.994;4.538;2023-05-14T14:32:45;25.70;99.90
18163;DHT22;9206;50.994;4.538;2023-05-14T14:35:15;25.80;99.90
18163;DHT22;9206;50.994;4.538;2023-05-14T14:37:42;25.70;99.90
18163;DHT22;9206;50.994;4.538;2023-05-14T14:40:16;25.60;99.90
18163;DHT22;9206;50.994;4.538;2023-05-14T14:42:46;25.50;99.90
18163;DHT22;9206;50.994;4.538;2023-05-14T14:45:14;25.30;99.90
18163;DHT22;9206;50.994;4.538;2023-05-14T14:48:29;25.10;99.90
18163;DHT22;9206;50.994;4.538;2023-05-14T14:50:59;25.00;99.90
18163;DHT22;9206;50.994;4.538;2023-05-14T14:53:30;24.90;99.90
18163;DHT22;9206;50.994;4.538;2023-05-14T14:55:59;24.90;99.90
18163;DHT22;9206;50.994;4.538;2023-05-14T14:58:26;24.90;99.90
18163;DHT22;9206;50.994;4.538;2023-05-14T15:00:57;24.70;99.90
18163;DHT22;9206;50.994;4.538;2023-05-14T15:03:26;24.70;99.90
18163;DHT22;9206;50.994;4.538;2023-05-14T15:05:59;24.80;99.90
18163;DHT22;9206;50.994;4.538;2023-05-14T15:08:27;24.70;99.90
18163;DHT22;9206;50.994;4.538;2023-05-14T15:10:58;24.60;99.90
18163;DHT22;9206;50.994;4.538;2023-05-14T15:13:28;24.40;99.90
18163;DHT22;9206;50.994;4.538;2023-05-14T15:15:55;24.20;99.90
18163;DHT22;9206;50.994;4.538;2023-05-14T15:18:28;24.00;99.90
18163;DHT22;9206;50.994;4.538;2023-05-14T15:21:03;23.80;99.90
18163;DHT22;9206;50.994;4.538;2023-05-14T15:23:33;23.60;99.90
18163;DHT22;9206;50.994;4.538;2023-05-14T15:26:04;23.50;99.90
18163;DHT22;9206;50.994;4.538;2023-05-14T15:28:35;23.60;99.90
18163;DHT22;9206;50.994;4.538;2023-05-14T15:31:05;23.70;99.90
18163;DHT22;9206;50.994;4.538;2023-05-14T15:33:38;23.60;99.90
18163;DHT22;9206;50.994;4.538;2023-05-14T15:36:07;23.50;99.90
18163;DHT22;9206;50.994;4.538;2023-05-14T15:38:36;23.50;99.90
18163;DHT22;9206;50.994;4.538;2023-05-14T15:41:05;23.40;99.90
18163;DHT22;9206;50.994;4.538;2023-05-14T15:43:39;23.10;99.90
18163;DHT22;9206;50.994;4.538;2023-05-14T15:46:14;23.00;99.90
18163;DHT22;9206;50.994;4.538;2023-05-14T15:48:47;22.80;99.90
18163;DHT22;9206;50.994;4.538;2023-05-14T15:51:21;22.80;99.90
18163;DHT22;9206;50.994;4.538;2023-05-14T15:53:48;22.70;99.90
18163;DHT22;9206;50.994;4.538;2023-05-14T15:56:18;22.60;99.90
18163;DHT22;9206;50.994;4.538;2023-05-14T15:58:46;22.50;99.90
18163;DHT22;9206;50.994;4.538;2023-05-14T16:01:13;22.40;99.90
18163;DHT22;9206;50.994;4.538;2023-05-14T16:03:41;22.60;99.90
18163;DHT22;9206;50.994;4.538;2023-05-14T16:06:14;22.60;99.90
18163;DHT22;9206;50.994;4.538;2023-05-14T16:08:41;22.40;99.90
18163;DHT22;9206;50.994;4.538;2023-05-14T16:11:15;22.20;99.90
18163;DHT22;9206;50.994;4.538;2023-05-14T16:13:49;21.90;99.90
18163;DHT22;9206;50.994;4.538;2023-05-14T16:16:17;21.70;99.90
18163;DHT22;9206;50.994;4.538;2023-05-14T16:18:51;21.70;99.90
18163;DHT22;9206;50.994;4.538;2023-05-14T16:21:24;21.60;99.90
18163;DHT22;9206;50.994;4.538;2023-05-14T16:23:51;21.50;99.90
18163;DHT22;9206;50.994;4.538;2023-05-14T16:26:35;21.30;99.90
18163;DHT22;9206;50.994;4.538;2023-05-14T16:29:43;21.40;99.90
18163;DHT22;9206;50.994;4.538;2023-05-14T16:32:36;21.20;99.90
18163;DHT22;9206;50.994;4.538;2023-05-14T16:37:59;21.10;99.90
18163;DHT22;9206;50.994;4.538;2023-05-14T16:40:50;20.80;99.90
18163;DHT22;9206;50.994;4.538;2023-05-14T16:43:43;20.70;99.90
18163;DHT22;9206;50.994;4.538;2023-05-14T16:46:32;20.50;99.90
18163;DHT22;9206;50.994;4.538;2023-05-14T16:49:20;20.40;99.90
18163;DHT22;9206;50.994;4.538;2023-05-14T16:52:10;20.30;99.90
18163;DHT22;9206;50.994;4.538;2023-05-14T16:54:58;20.20;99.90
18163;DHT22;9206;50.994;4.538;2023-05-14T16:57:46;20.30;99.90
18163;DHT22;9206;50.994;4.538;2023-05-14T17:00:33;20.30;99.90
18163;DHT22;9206;50.994;4.538;2023-05-14T17:03:25;20.20;99.90
18163;DHT22;9206;50.994;4.538;2023-05-14T17:06:12;20.10;99.90
18163;DHT22;9206;50.994;4.538;2023-05-14T17:09:00;20.00;99.90
18163;DHT22;9206;50.994;4.538;2023-05-14T17:11:49;20.00;99.90
18163;DHT22;9206;50.994;4.538;2023-05-14T17:14:39;20.10;99.90
18163;DHT22;9206;50.994;4.538;2023-05-14T17:17:26;20.00;99.90
18163;DHT22;9206;50.994;4.538;2023-05-14T17:20:21;19.90;99.90
18163;DHT22;9206;50.994;4.538;2023-05-14T17:23:09;19.80;99.90
18163;DHT22;9206;50.994;4.538;2023-05-14T17:25:58;19.60;99.90
18163;DHT22;9206;50.994;4.538;2023-05-14T17:28:50;19.40;99.90
18163;DHT22;9206;50.994;4.538;2023-05-14T17:31:45;19.20;99.90
18163;DHT22;9206;50.994;4.538;2023-05-14T17:34:43;19.00;99.90
18163;DHT22;9206;50.994;4.538;2023-05-14T17:37:32;18.70;99.90
18163;DHT22;9206;50.994;4.538;2023-05-14T17:40:24;18.60;99.90
18163;DHT22;9206;50.994;4.538;2023-05-14T17:43:34;18.50;99.90
18163;DHT22;9206;50.994;4.538;2023-05-14T17:46:30;18.30;99.90
18163;DHT22;9206;50.994;4.538;2023-05-14T17:49:18;18.10;99.90
18163;DHT22;9206;50.994;4.538;2023-05-14T17:52:07;18.10;99.90
18163;DHT22;9206;50.994;4.538;2023-05-14T17:54:57;17.90;99.90
18163;DHT22;9206;50.994;4.538;2023-05-14T17:57:44;17.80;99.90
18163;DHT22;9206;50.994;4.538;2023-05-14T18:00:33;17.70;99.90
18163;DHT22;9206;50.994;4.538;2023-05-14T18:03:20;17.70;99.90